Time;durP1;ratioP1;P1;durP2;ratioP2;P2;SDS_P1;SDS_P2;PMS_P1;PMS_P2;Temp;Humidity;BMP_temperature;BMP_pressure;BME280_temperature;BME280_humidity;BME280_pressure;Samples;Min_cycle;Max_cycle;Signal;HPM_P1;HPM_P2
2021/11/10 00:02:02;;;;;;;12.75;8.23;;;8.60;98.20;;;;;;5059178;28;20499;-62
2021/11/10 00:04:27;;;;;;;13.35;8.30;;;8.50;98.10;;;;;;5055195;28;20032;-63
2021/11/10 00:06:53;;;;;;;15.43;8.80;;;8.60;98.10;;;;;;5069933;28;20075;-63
2021/11/10 00:09:19;;;;;;;12.82;7.95;;;8.50;98.10;;;;;;5052535;28;20060;-63
2021/11/10 00:11:44;;;;;;;13.82;7.85;;;8.50;98.10;;;;;;5063487;28;20033;-63
2021/11/10 00:14:11;;;;;;;13.57;8.63;;;8.60;98.10;;;;;;5067480;28;20035;-62
2021/11/10 00:16:37;;;;;;;11.48;8.30;;;8.50;98.20;;;;;;5067852;28;20055;-61
2021/11/10 00:19:03;;;;;;;14.40;8.60;;;8.50;98.20;;;;;;5052186;28;20090;-62
2021/11/10 00:21:29;;;;;;;15.25;8.45;;;8.50;98.20;;;;;;5055949;28;20025;-62
2021/11/10 00:23:56;;;;;;;12.40;8.85;;;8.50;98.20;;;;;;5053569;28;20021;-62
2021/11/10 00:26:22;;;;;;;13.10;8.65;;;8.40;98.20;;;;;;5067765;28;20094;-61
2021/11/10 00:28:49;;;;;;;15.05;8.20;;;8.40;98.20;;;;;;5071417;28;20029;-62
2021/11/10 00:31:15;;;;;;;16.75;8.52;;;8.40;98.20;;;;;;5070729;28;20033;-62
2021/11/10 00:33:41;;;;;;;11.27;8.18;;;8.40;98.20;;;;;;5070284;28;20040;-62
2021/11/10 00:36:08;;;;;;;11.75;8.10;;;8.40;98.20;;;;;;5069991;28;20051;-62
2021/11/10 00:38:33;;;;;;;17.15;9.45;;;8.40;98.20;;;;;;5056115;28;20091;-62
2021/11/10 00:40:59;;;;;;;14.32;8.52;;;8.40;98.20;;;;;;5052084;28;20460;-62
2021/11/10 00:43:24;;;;;;;17.27;10.35;;;8.40;98.30;;;;;;5065061;28;20044;-63
2021/11/10 00:45:50;;;;;;;12.38;8.07;;;8.40;98.30;;;;;;5074881;28;20028;-62
2021/11/10 00:48:16;;;;;;;13.63;9.25;;;8.30;98.20;;;;;;5072638;28;20464;-62
2021/11/10 00:50:43;;;;;;;14.90;8.52;;;8.30;98.20;;;;;;5057495;28;20421;-63
2021/11/10 00:53:08;;;;;;;15.65;8.48;;;8.30;98.20;;;;;;5063579;28;20051;-63
2021/11/10 00:55:35;;;;;;;15.02;8.77;;;8.30;98.20;;;;;;5070679;28;20044;-63
2021/11/10 00:58:01;;;;;;;11.80;8.20;;;8.30;98.30;;;;;;5068433;28;20032;-63
2021/11/10 01:00:27;;;;;;;15.07;9.32;;;8.30;98.30;;;;;;5068675;28;20032;-63
2021/11/10 01:02:53;;;;;;;13.85;8.60;;;8.20;98.30;;;;;;5055139;28;20480;-62
2021/11/10 01:05:19;;;;;;;11.60;8.25;;;8.20;98.20;;;;;;5062316;28;20032;-63
2021/11/10 01:07:44;;;;;;;16.05;8.48;;;8.20;98.30;;;;;;5067156;28;20033;-63
2021/11/10 01:10:12;;;;;;;11.85;7.68;;;8.10;98.40;;;;;;5051282;28;20033;-63
2021/11/10 01:12:37;;;;;;;12.48;8.52;;;8.00;98.40;;;;;;5052621;28;20041;-63
2021/11/10 01:15:05;;;;;;;14.75;8.70;;;8.10;98.40;;;;;;5051173;28;20487;-62
2021/11/10 01:17:30;;;;;;;14.38;8.45;;;8.00;98.40;;;;;;5064981;28;20051;-63
2021/11/10 01:19:56;;;;;;;14.50;8.40;;;8.00;98.40;;;;;;5051189;28;20485;-62
2021/11/10 01:22:21;;;;;;;14.48;8.38;;;8.00;98.40;;;;;;5061551;28;20017;-62
2021/11/10 01:24:47;;;;;;;11.10;8.77;;;8.00;98.40;;;;;;5050508;28;20497;-63
2021/11/10 01:27:14;;;;;;;12.23;8.73;;;8.00;98.40;;;;;;5054912;28;20021;-63
2021/11/10 01:29:40;;;;;;;12.45;7.95;;;8.00;98.40;;;;;;5064949;28;20481;-62
2021/11/10 01:32:06;;;;;;;14.25;8.00;;;8.00;98.40;;;;;;5067267;28;20016;-62
2021/11/10 01:34:32;;;;;;;12.02;8.07;;;8.00;98.50;;;;;;5052478;28;20485;-62
2021/11/10 01:36:58;;;;;;;11.25;7.97;;;7.90;98.50;;;;;;5068622;28;20031;-63
2021/11/10 01:39:23;;;;;;;14.95;8.75;;;7.90;98.50;;;;;;5051307;28;20476;-62
2021/11/10 01:41:51;;;;;;;15.40;8.98;;;7.90;98.50;;;;;;5051843;28;20028;-62
2021/11/10 01:44:21;;;;;;;10.93;7.95;;;7.90;98.50;;;;;;5049875;28;20029;-62
2021/11/10 01:46:47;;;;;;;12.55;8.68;;;7.90;98.50;;;;;;5064179;28;20040;-62
2021/11/10 01:49:13;;;;;;;14.88;8.73;;;7.90;98.50;;;;;;5064835;28;20025;-62
2021/11/10 01:51:49;;;;;;;13.27;9.00;;;7.90;98.50;;;;;;5053520;28;20484;-62
2021/11/10 01:54:18;;;;;;;12.70;8.25;;;7.90;98.50;;;;;;5055271;28;20060;-62
2021/11/10 01:56:44;;;;;;;14.65;9.07;;;7.90;98.50;;;;;;5055311;28;20021;-62
2021/11/10 01:59:26;;;;;;;16.70;8.60;;;7.80;98.50;;;;;;5057932;28;20051;-62
2021/11/10 02:01:52;;;;;;;14.90;9.57;;;7.80;98.50;;;;;;5072960;28;20025;-62
2021/11/10 02:04:25;;;;;;;16.85;9.00;;;7.80;98.50;;;;;;5055000;28;20070;-62
2021/11/10 02:06:53;;;;;;;15.73;9.35;;;7.80;98.60;;;;;;5066891;28;20055;-63
2021/11/10 02:09:22;;;;;;;15.65;10.38;;;7.70;98.50;;;;;;5054061;28;20032;-63
2021/11/10 02:11:47;;;;;;;18.85;10.05;;;7.70;98.60;;;;;;5073615;28;20032;-62
2021/11/10 02:14:13;;;;;;;13.38;9.60;;;7.70;98.60;;;;;;5056224;28;20532;-62
2021/11/10 02:16:39;;;;;;;15.52;9.38;;;7.60;98.60;;;;;;5067688;28;20412;-62
2021/11/10 02:19:06;;;;;;;15.63;9.50;;;7.60;98.60;;;;;;5054662;28;20032;-62
2021/11/10 02:21:32;;;;;;;18.23;10.48;;;7.60;98.60;;;;;;5070143;28;20024;-62
2021/11/10 02:23:59;;;;;;;17.08;9.85;;;7.60;98.60;;;;;;5074425;28;20546;-62
2021/11/10 02:26:25;;;;;;;15.15;9.80;;;7.50;98.60;;;;;;5061928;28;20042;-62
2021/11/10 02:28:51;;;;;;;16.80;10.38;;;7.50;98.60;;;;;;5055062;28;20153;-62
2021/11/10 02:31:18;;;;;;;15.00;9.05;;;7.50;98.70;;;;;;5066780;28;20036;-62
2021/11/10 02:33:43;;;;;;;16.70;9.48;;;7.50;98.70;;;;;;5054510;28;20079;-62
2021/11/10 02:36:10;;;;;;;17.13;9.90;;;7.40;98.70;;;;;;5054075;28;20029;-62
2021/11/10 02:38:37;;;;;;;16.65;9.88;;;7.50;98.70;;;;;;5054518;28;20044;-62
2021/11/10 02:41:03;;;;;;;16.48;10.25;;;7.40;98.70;;;;;;5066820;28;20066;-62
2021/11/10 02:43:29;;;;;;;15.90;9.32;;;7.40;98.70;;;;;;5071929;28;20113;-63
2021/11/10 02:45:55;;;;;;;15.63;10.23;;;7.40;98.80;;;;;;5062339;28;20376;-63
2021/11/10 02:48:21;;;;;;;13.82;9.13;;;7.40;98.80;;;;;;5070258;28;20029;-63
2021/11/10 02:50:46;;;;;;;14.27;9.25;;;7.40;98.80;;;;;;5072512;28;20032;-62
2021/11/10 02:53:12;;;;;;;15.73;9.38;;;7.40;98.70;;;;;;5057103;28;20055;-63
2021/11/10 02:55:38;;;;;;;15.82;9.32;;;7.40;98.70;;;;;;5062409;28;20063;-62
2021/11/10 02:58:04;;;;;;;14.55;9.98;;;7.30;98.70;;;;;;5065351;28;20031;-62
2021/11/10 03:00:30;;;;;;;13.20;9.10;;;7.30;98.70;;;;;;5061568;28;20388;-63
2021/11/10 03:02:56;;;;;;;13.90;9.40;;;7.30;98.70;;;;;;5072948;28;20044;-62
2021/11/10 03:05:23;;;;;;;16.95;9.55;;;7.30;98.80;;;;;;5065623;28;20488;-63
2021/11/10 03:07:48;;;;;;;16.45;9.68;;;7.20;98.80;;;;;;5062520;28;20029;-63
2021/11/10 03:10:15;;;;;;;19.25;10.50;;;7.20;98.70;;;;;;5053341;28;20052;-63
2021/11/10 03:12:41;;;;;;;18.58;10.48;;;7.20;98.80;;;;;;5062888;28;20056;-63
2021/11/10 03:15:08;;;;;;;12.48;9.05;;;7.20;98.80;;;;;;5071491;28;20025;-62
2021/11/10 03:17:34;;;;;;;15.68;9.95;;;7.10;98.80;;;;;;5065714;28;20082;-63
2021/11/10 03:20:00;;;;;;;14.05;9.50;;;7.10;98.80;;;;;;5060059;28;20020;-62
2021/11/10 03:22:26;;;;;;;17.80;11.02;;;7.10;98.80;;;;;;5086129;28;20465;-63
2021/11/10 03:24:51;;;;;;;15.05;9.90;;;7.10;98.80;;;;;;5072226;28;20038;-63
2021/11/10 03:27:17;;;;;;;16.70;9.48;;;7.10;98.80;;;;;;5071736;28;20459;-62
2021/11/10 03:29:43;;;;;;;18.90;10.35;;;7.10;98.80;;;;;;5069906;28;20598;-63
2021/11/10 03:32:10;;;;;;;15.40;9.75;;;7.00;98.80;;;;;;5059778;28;20581;-62
2021/11/10 03:34:36;;;;;;;15.30;10.20;;;7.00;98.80;;;;;;5071193;28;20135;-63
2021/11/10 03:37:02;;;;;;;14.82;9.55;;;7.00;98.90;;;;;;5055823;28;20536;-62
2021/11/10 03:39:28;;;;;;;15.55;9.95;;;6.90;98.80;;;;;;5057149;28;20373;-62
2021/11/10 03:41:54;;;;;;;16.77;9.98;;;6.90;98.80;;;;;;5066190;28;20020;-63
2021/11/10 03:44:20;;;;;;;14.00;9.23;;;6.90;98.80;;;;;;5056686;28;20477;-63
2021/11/10 03:46:46;;;;;;;16.08;10.13;;;6.90;98.90;;;;;;5058189;28;20166;-62
2021/11/10 03:49:13;;;;;;;18.98;10.38;;;6.90;98.80;;;;;;5054146;28;20056;-62
2021/11/10 03:51:39;;;;;;;16.60;11.23;;;6.90;98.90;;;;;;5072251;28;20036;-62
2021/11/10 03:54:04;;;;;;;14.15;9.52;;;6.90;98.90;;;;;;5071979;28;20047;-62
2021/11/10 03:56:30;;;;;;;20.40;11.27;;;6.90;98.90;;;;;;5055684;28;20108;-62
2021/11/10 03:58:56;;;;;;;18.48;10.13;;;6.90;98.90;;;;;;5056328;28;20078;-62
2021/11/10 04:01:21;;;;;;;17.98;10.35;;;6.80;98.80;;;;;;5055050;28;20024;-62
2021/11/10 04:03:47;;;;;;;17.75;10.07;;;6.80;98.90;;;;;;5052704;28;20032;-62
2021/11/10 04:06:13;;;;;;;19.45;10.57;;;6.80;98.90;;;;;;5067908;28;20477;-62
2021/11/10 04:08:39;;;;;;;14.32;9.63;;;6.80;98.90;;;;;;5072698;28;20112;-62
2021/11/10 04:11:05;;;;;;;13.07;9.25;;;6.80;98.90;;;;;;5059395;28;20444;-62
2021/11/10 04:13:31;;;;;;;16.98;10.18;;;6.80;98.90;;;;;;5052027;28;20120;-62
2021/11/10 04:15:57;;;;;;;13.88;10.18;;;6.80;98.90;;;;;;5063790;28;20021;-62
2021/11/10 04:18:23;;;;;;;17.25;9.73;;;6.80;98.90;;;;;;5072013;28;20028;-62
2021/11/10 04:20:48;;;;;;;14.65;10.50;;;6.80;98.90;;;;;;5069154;28;20066;-62
2021/11/10 04:23:14;;;;;;;16.52;11.18;;;6.80;98.90;;;;;;5072254;28;20032;-62
2021/11/10 04:25:40;;;;;;;16.67;11.18;;;6.80;98.90;;;;;;5066156;28;20044;-62
2021/11/10 04:28:06;;;;;;;16.35;10.35;;;6.80;99.00;;;;;;5060333;28;20062;-62
2021/11/10 04:30:32;;;;;;;17.42;10.40;;;6.70;98.90;;;;;;5062532;28;20029;-62
2021/11/10 04:32:58;;;;;;;15.75;9.73;;;6.70;99.00;;;;;;5051921;28;20071;-62
2021/11/10 04:35:24;;;;;;;15.95;10.40;;;6.70;98.90;;;;;;5057952;28;20025;-62
2021/11/10 04:37:50;;;;;;;15.75;9.32;;;6.70;99.00;;;;;;5072288;28;20394;-62
2021/11/10 04:40:15;;;;;;;16.92;10.25;;;6.70;98.90;;;;;;5067047;28;20300;-62
2021/11/10 04:42:41;;;;;;;16.35;10.38;;;6.70;98.90;;;;;;5058556;28;20017;-62
2021/11/10 04:45:10;;;;;;;18.85;10.02;;;6.70;98.90;;;;;;5055333;28;20896;-62
2021/11/10 04:47:36;;;;;;;16.20;10.25;;;6.70;98.90;;;;;;5069506;28;20087;-62
2021/11/10 04:50:07;;;;;;;14.50;9.82;;;6.70;98.90;;;;;;5051727;28;20052;-62
2021/11/10 04:52:35;;;;;;;15.40;9.40;;;6.70;98.90;;;;;;5051644;28;20496;-62
2021/11/10 04:55:01;;;;;;;18.58;10.73;;;6.70;98.90;;;;;;5066315;28;20650;-61
2021/11/10 04:57:26;;;;;;;19.10;10.02;;;6.70;98.90;;;;;;5050627;28;20029;-61
2021/11/10 04:59:52;;;;;;;18.73;10.75;;;6.60;98.90;;;;;;5066065;28;20031;-61
2021/11/10 05:04:43;;;;;;;17.92;10.07;;;6.60;98.90;;;;;;5060350;28;20542;-61
2021/11/10 05:07:12;;;;;;;19.55;10.40;;;6.60;98.90;;;;;;5051166;28;20029;-61
2021/11/10 05:09:38;;;;;;;16.63;9.88;;;6.60;98.90;;;;;;5062670;28;20128;-61
2021/11/10 05:12:04;;;;;;;17.80;10.85;;;6.60;98.90;;;;;;5071664;28;20095;-61
2021/11/10 05:14:31;;;;;;;15.15;10.35;;;6.60;98.90;;;;;;5055018;28;20036;-61
2021/11/10 05:16:56;;;;;;;18.15;10.30;;;6.60;98.90;;;;;;5051857;28;20029;-61
2021/11/10 05:19:22;;;;;;;18.70;11.27;;;6.50;98.90;;;;;;5050910;28;20547;-61
2021/11/10 05:21:48;;;;;;;16.15;9.73;;;6.50;98.90;;;;;;5052293;28;20027;-62
2021/11/10 05:24:13;;;;;;;21.25;10.30;;;6.50;98.90;;;;;;5060801;28;20033;-62
2021/11/10 05:26:39;;;;;;;19.50;10.65;;;6.50;98.90;;;;;;5066788;28;20020;-62
2021/11/10 05:29:07;;;;;;;17.30;10.77;;;6.50;98.90;;;;;;5071046;28;20510;-62
2021/11/10 05:31:32;;;;;;;16.85;10.85;;;6.50;98.90;;;;;;5058564;28;20536;-62
2021/11/10 05:33:59;;;;;;;18.95;10.10;;;6.50;98.90;;;;;;5071424;28;20028;-62
2021/11/10 05:36:24;;;;;;;17.92;9.63;;;6.50;98.90;;;;;;5067963;28;20020;-62
2021/11/10 05:38:50;;;;;;;16.73;9.93;;;6.50;98.90;;;;;;5071411;28;20111;-61
2021/11/10 05:41:16;;;;;;;16.88;9.98;;;6.50;98.90;;;;;;5069043;28;20036;-61
2021/11/10 05:43:41;;;;;;;16.98;10.93;;;6.50;98.90;;;;;;5067943;28;20029;-61
2021/11/10 05:46:07;;;;;;;18.52;10.55;;;6.50;98.90;;;;;;5054654;28;20021;-63
2021/11/10 05:48:33;;;;;;;16.95;10.85;;;6.40;98.90;;;;;;5051047;28;20029;-62
2021/11/10 05:50:59;;;;;;;25.52;11.85;;;6.40;98.90;;;;;;5059555;28;20036;-62
2021/11/10 05:53:24;;;;;;;22.67;12.23;;;6.40;98.90;;;;;;5050172;28;20083;-62
2021/11/10 05:55:55;;;;;;;19.75;11.73;;;6.30;98.90;;;;;;5061245;28;20115;-63
2021/11/10 05:58:22;;;;;;;19.05;11.52;;;6.30;98.90;;;;;;5070726;28;20043;-62
2021/11/10 06:00:49;;;;;;;25.35;12.88;;;6.30;98.90;;;;;;5061312;28;20032;-63
2021/11/10 06:03:15;;;;;;;21.00;12.45;;;6.30;98.90;;;;;;5067246;28;20094;-62
2021/11/10 06:05:40;;;;;;;20.17;11.90;;;6.30;98.90;;;;;;5053938;28;20020;-62
2021/11/10 06:08:06;;;;;;;20.90;11.98;;;6.20;98.90;;;;;;5060251;28;20025;-62
2021/11/10 06:10:31;;;;;;;19.25;11.23;;;6.20;98.90;;;;;;5051064;28;20032;-63
2021/11/10 06:12:57;;;;;;;20.25;13.23;;;6.10;98.90;;;;;;5058792;28;20056;-62
2021/11/10 06:15:23;;;;;;;23.55;12.75;;;6.10;98.90;;;;;;5068619;28;20028;-62
2021/11/10 06:17:48;;;;;;;22.88;12.90;;;6.10;98.90;;;;;;5068553;28;20021;-61
2021/11/10 06:20:15;;;;;;;21.80;13.15;;;6.10;99.00;;;;;;5051486;28;20036;-62
2021/11/10 06:22:41;;;;;;;18.33;12.00;;;6.10;99.00;;;;;;5051026;28;20021;-62
2021/11/10 06:25:08;;;;;;;19.80;13.35;;;6.10;99.00;;;;;;5053822;28;20021;-62
2021/11/10 06:27:33;;;;;;;17.42;11.55;;;6.00;99.00;;;;;;5066820;28;20025;-62
2021/11/10 06:29:59;;;;;;;23.48;12.07;;;6.10;99.10;;;;;;5053184;28;20017;-62
2021/11/10 06:32:25;;;;;;;19.27;12.27;;;6.00;99.00;;;;;;5069904;28;20047;-61
2021/11/10 06:34:50;;;;;;;17.02;11.18;;;6.00;99.00;;;;;;5068763;28;20032;-62
2021/11/10 06:37:16;;;;;;;18.50;12.30;;;6.00;99.10;;;;;;5067241;28;20542;-61
2021/11/10 06:39:42;;;;;;;21.25;12.45;;;6.00;99.10;;;;;;5054512;28;20515;-62
2021/11/10 06:42:08;;;;;;;19.63;11.80;;;6.00;99.10;;;;;;5072872;28;20036;-62
2021/11/10 06:44:34;;;;;;;18.13;11.93;;;6.00;99.10;;;;;;5070043;28;20028;-62
2021/11/10 06:46:59;;;;;;;18.83;11.70;;;6.00;99.10;;;;;;5055175;28;20469;-62
2021/11/10 06:49:26;;;;;;;19.95;11.95;;;6.00;99.10;;;;;;5053093;28;20032;-62
2021/11/10 06:51:52;;;;;;;19.75;12.00;;;6.00;99.10;;;;;;5058158;28;20033;-62
2021/11/10 06:54:17;;;;;;;20.83;12.32;;;6.00;99.10;;;;;;5058520;28;20072;-61
2021/11/10 06:56:43;;;;;;;20.58;12.57;;;6.00;99.20;;;;;;5069817;28;20023;-62
2021/11/10 06:59:09;;;;;;;21.20;12.80;;;6.10;99.20;;;;;;5069611;28;20037;-63
2021/11/10 07:01:35;;;;;;;20.27;11.93;;;6.10;99.20;;;;;;5054015;28;20033;-63
2021/11/10 07:04:00;;;;;;;21.10;12.85;;;6.10;99.20;;;;;;5053550;28;20031;-62
2021/11/10 07:06:26;;;;;;;20.45;14.07;;;6.20;99.20;;;;;;5051901;28;20029;-62
2021/11/10 07:08:52;;;;;;;20.63;12.90;;;6.20;99.10;;;;;;5056192;28;20033;-62
2021/11/10 07:11:18;;;;;;;20.27;13.60;;;6.20;99.10;;;;;;5058699;28;20017;-62
2021/11/10 07:13:44;;;;;;;22.17;13.52;;;6.20;99.10;;;;;;5060433;28;20554;-61
2021/11/10 07:16:09;;;;;;;21.17;12.90;;;6.20;99.10;;;;;;5058725;28;20796;-62
2021/11/10 07:18:35;;;;;;;21.77;14.00;;;6.20;99.40;;;;;;5062942;28;20063;-62
2021/11/10 07:21:00;;;;;;;27.00;13.70;;;6.20;99.20;;;;;;5059382;28;20079;-63
2021/11/10 07:23:26;;;;;;;21.73;13.55;;;6.20;99.20;;;;;;5055725;28;20091;-63
2021/11/10 07:25:52;;;;;;;19.55;13.05;;;6.20;99.20;;;;;;5059746;28;20541;-62
2021/11/10 07:28:17;;;;;;;24.30;14.75;;;6.30;99.20;;;;;;5053915;28;20047;-62
2021/11/10 07:30:45;;;;;;;20.48;14.05;;;6.30;99.20;;;;;;5056317;28;20036;-62
2021/11/10 07:33:10;;;;;;;19.83;13.07;;;6.30;99.20;;;;;;5060901;28;20127;-62
2021/11/10 07:35:36;;;;;;;21.83;12.68;;;6.30;99.20;;;;;;5062155;28;20374;-62
2021/11/10 07:38:02;;;;;;;26.40;13.55;;;6.40;99.20;;;;;;5053084;28;20040;-62
2021/11/10 07:40:27;;;;;;;23.95;11.68;;;6.40;99.20;;;;;;5054123;28;20033;-63
2021/11/10 07:42:54;;;;;;;17.40;11.93;;;6.40;99.20;;;;;;5057423;28;20031;-62
2021/11/10 07:45:38;;;;;;;20.20;13.40;;;6.50;99.20;;;;;;5055574;28;20111;-63
2021/11/10 07:48:06;;;;;;;22.27;13.27;;;6.50;99.20;;;;;;5057936;28;20035;-62
2021/11/10 07:50:33;;;;;;;25.33;13.20;;;6.50;99.10;;;;;;5054387;28;20040;-62
2021/11/10 07:52:59;;;;;;;23.88;13.60;;;6.50;99.20;;;;;;5056315;28;20051;-62
2021/11/10 07:55:26;;;;;;;22.38;14.05;;;6.60;99.20;;;;;;5059010;28;20627;-63
2021/11/10 07:57:53;;;;;;;20.08;12.70;;;6.70;99.20;;;;;;5059216;28;20033;-63
2021/11/10 08:00:20;;;;;;;20.63;12.50;;;6.70;99.20;;;;;;5052549;28;20039;-63
2021/11/10 08:02:46;;;;;;;21.50;13.55;;;6.80;99.20;;;;;;5063552;28;20066;-63
2021/11/10 08:05:13;;;;;;;23.40;13.63;;;6.90;99.20;;;;;;5065396;28;20489;-63
2021/11/10 08:07:40;;;;;;;19.15;11.27;;;6.90;99.20;;;;;;5056314;28;20024;-63
2021/11/10 08:10:07;;;;;;;18.65;12.60;;;6.90;99.10;;;;;;5060366;28;20432;-63
2021/11/10 08:12:36;;;;;;;20.27;12.85;;;7.00;99.10;;;;;;5059726;28;20024;-63
2021/11/10 08:15:04;;;;;;;24.05;13.68;;;7.00;99.10;;;;;;5056470;28;20078;-62
2021/11/10 08:17:29;;;;;;;22.40;12.60;;;7.10;99.10;;;;;;5059400;28;20017;-63
2021/11/10 08:19:55;;;;;;;20.05;13.13;;;7.20;99.20;;;;;;5059670;28;20503;-63
2021/11/10 08:22:21;;;;;;;20.90;12.73;;;7.20;99.10;;;;;;5058870;28;20067;-63
2021/11/10 08:24:48;;;;;;;19.27;12.05;;;7.30;99.10;;;;;;5067933;28;20029;-64
2021/11/10 08:27:14;;;;;;;24.13;11.60;;;7.40;99.10;;;;;;5057387;28;20028;-64
2021/11/10 08:29:40;;;;;;;17.55;12.13;;;7.50;99.00;;;;;;5063448;28;20024;-65
2021/11/10 08:32:06;;;;;;;17.40;12.25;;;7.50;99.00;;;;;;5050702;28;20980;-64
2021/11/10 08:34:31;;;;;;;22.88;11.90;;;7.60;98.90;;;;;;5051107;28;20037;-62
2021/11/10 08:36:57;;;;;;;18.52;11.35;;;7.60;98.90;;;;;;5058899;28;20432;-64
2021/11/10 08:39:22;;;;;;;18.45;11.57;;;7.70;98.90;;;;;;5063354;28;20108;-64
2021/11/10 08:41:48;;;;;;;19.02;11.75;;;7.80;98.80;;;;;;5059677;28;20377;-65
2021/11/10 08:44:15;;;;;;;19.35;13.00;;;7.90;98.70;;;;;;5059191;28;20067;-64
2021/11/10 08:46:42;;;;;;;20.63;12.63;;;7.90;98.50;;;;;;5053177;28;20161;-63
2021/11/10 08:49:07;;;;;;;20.27;11.88;;;8.00;98.50;;;;;;5050750;28;20033;-63
2021/11/10 08:51:34;;;;;;;18.33;11.77;;;8.00;98.40;;;;;;5065600;28;20029;-64
2021/11/10 08:54:00;;;;;;;20.02;13.40;;;8.10;98.30;;;;;;5068750;28;20403;-63
2021/11/10 08:56:25;;;;;;;20.10;12.18;;;8.10;98.30;;;;;;5056866;28;20036;-63
2021/11/10 08:58:51;;;;;;;18.50;11.88;;;8.10;98.20;;;;;;5063173;28;20021;-63
2021/11/10 09:01:17;;;;;;;23.70;12.55;;;8.10;98.20;;;;;;5063144;28;20555;-63
2021/11/10 09:03:43;;;;;;;21.65;12.45;;;8.10;98.10;;;;;;5054049;28;20136;-64
2021/11/10 09:06:09;;;;;;;18.88;11.73;;;8.10;98.10;;;;;;5067512;28;20115;-64
2021/11/10 09:08:35;;;;;;;16.38;11.70;;;8.20;98.10;;;;;;5058458;28;20112;-64
2021/11/10 09:11:01;;;;;;;19.08;12.90;;;8.20;98.00;;;;;;5056834;28;20377;-64
2021/11/10 09:13:28;;;;;;;17.10;11.93;;;8.20;97.90;;;;;;5051744;28;20090;-64
2021/11/10 09:15:55;;;;;;;21.27;12.70;;;8.30;97.90;;;;;;5059496;28;20029;-64
2021/11/10 09:18:21;;;;;;;19.73;12.43;;;8.30;97.90;;;;;;5067536;28;20028;-64
2021/11/10 09:20:47;;;;;;;17.17;12.15;;;8.30;97.80;;;;;;5058233;28;20090;-64
2021/11/10 09:23:15;;;;;;;21.27;12.52;;;8.40;97.80;;;;;;5057194;28;20108;-64
2021/11/10 09:25:43;;;;;;;18.30;12.07;;;8.50;97.80;;;;;;5058241;28;20036;-64
2021/11/10 09:28:12;;;;;;;18.38;11.85;;;8.50;97.80;;;;;;5058575;28;20477;-64
2021/11/10 09:30:39;;;;;;;17.55;11.73;;;8.60;97.80;;;;;;5053408;28;20478;-64
2021/11/10 09:33:07;;;;;;;19.33;11.85;;;8.60;97.80;;;;;;5061867;28;20032;-65
2021/11/10 09:35:33;;;;;;;19.10;12.35;;;8.70;97.70;;;;;;5066395;28;20043;-64
2021/11/10 09:37:59;;;;;;;22.45;11.82;;;8.80;97.70;;;;;;5065558;28;20370;-64
2021/11/10 09:40:27;;;;;;;18.35;11.73;;;8.80;97.60;;;;;;5064054;28;20037;-64
2021/11/10 09:42:54;;;;;;;18.60;11.98;;;8.80;97.60;;;;;;5058674;28;20021;-64
2021/11/10 09:45:21;;;;;;;20.23;11.82;;;8.90;97.70;;;;;;5058100;28;20609;-64
2021/11/10 09:47:48;;;;;;;20.20;12.15;;;8.90;97.60;;;;;;5050341;28;20060;-64
2021/11/10 09:50:17;;;;;;;17.60;11.52;;;9.00;97.60;;;;;;5063125;28;20462;-63
2021/11/10 09:52:43;;;;;;;15.32;10.82;;;9.00;97.60;;;;;;5064807;28;20036;-64
2021/11/10 09:55:14;;;;;;;19.02;10.95;;;9.10;97.60;;;;;;5071246;28;20051;-64
2021/11/10 09:57:41;;;;;;;17.73;10.85;;;9.20;97.50;;;;;;5054744;28;20025;-64
2021/11/10 10:00:09;;;;;;;20.48;10.80;;;9.30;97.30;;;;;;5049347;28;20032;-64
2021/11/10 10:02:35;;;;;;;13.70;9.70;;;9.30;97.20;;;;;;5050237;28;20029;-64
2021/11/10 10:05:01;;;;;;;16.00;10.35;;;9.40;97.10;;;;;;5059050;28;20025;-64
2021/11/10 10:07:27;;;;;;;18.23;10.93;;;9.60;97.10;;;;;;5051652;28;20095;-64
2021/11/10 10:09:54;;;;;;;17.85;11.45;;;9.60;97.00;;;;;;5061286;28;20056;-64
2021/11/10 10:12:19;;;;;;;15.48;10.98;;;9.70;96.80;;;;;;5065738;28;20432;-64
2021/11/10 10:14:49;;;;;;;17.30;11.15;;;9.80;96.60;;;;;;5064872;28;20037;-64
2021/11/10 10:17:37;;;;;;;17.77;11.40;;;9.90;96.50;;;;;;5060665;28;20036;-64
2021/11/10 10:20:06;;;;;;;18.52;11.50;;;10.00;96.40;;;;;;5062575;28;20452;-64
2021/11/10 10:22:31;;;;;;;19.70;11.07;;;10.00;96.20;;;;;;5062034;28;20029;-64
2021/11/10 10:24:58;;;;;;;18.35;12.30;;;10.10;96.40;;;;;;5066445;28;20032;-64
2021/11/10 10:27:32;;;;;;;15.75;11.40;;;10.10;96.20;;;;;;5057869;28;20024;-64
2021/11/10 10:30:28;;;;;;;18.83;12.45;;;10.20;96.20;;;;;;5056665;28;20392;-64
2021/11/10 10:33:16;;;;;;;17.63;10.75;;;10.30;96.10;;;;;;5060380;28;20079;-64
2021/11/10 10:35:46;;;;;;;15.88;11.73;;;10.40;96.00;;;;;;5065082;28;20615;-65
2021/11/10 10:38:20;;;;;;;19.30;11.63;;;10.50;96.00;;;;;;5062263;28;20032;-64
2021/11/10 10:40:49;;;;;;;16.63;11.48;;;10.60;95.90;;;;;;5063127;28;20399;-64
2021/11/10 10:43:16;;;;;;;17.52;11.57;;;10.60;95.80;;;;;;5056940;28;20030;-63
2021/11/10 10:45:43;;;;;;;19.70;11.98;;;10.70;95.70;;;;;;5062798;28;20029;-64
2021/11/10 10:48:15;;;;;;;21.27;11.20;;;10.70;95.50;;;;;;5052781;28;20641;-64
2021/11/10 10:50:50;;;;;;;18.13;11.00;;;10.80;95.40;;;;;;5055474;28;20033;-64
2021/11/10 10:53:18;;;;;;;15.27;10.93;;;10.80;95.30;;;;;;5056878;28;20102;-64
2021/11/10 10:55:48;;;;;;;15.77;10.27;;;10.90;95.20;;;;;;5054062;28;20525;-64
2021/11/10 10:58:31;;;;;;;15.57;10.27;;;10.90;95.00;;;;;;5063526;28;20033;-64
2021/11/10 11:00:59;;;;;;;17.83;11.32;;;11.00;95.10;;;;;;5053031;28;20501;-64
2021/11/10 11:03:26;;;;;;;15.50;10.77;;;11.00;94.90;;;;;;5065331;28;20032;-64
2021/11/10 11:05:52;;;;;;;18.63;11.93;;;11.10;94.80;;;;;;5051857;28;20029;-64
2021/11/10 11:08:46;;;;;;;19.27;12.35;;;11.20;94.70;;;;;;5053344;28;21154;-64
2021/11/10 11:11:24;;;;;;;15.38;10.18;;;11.20;94.60;;;;;;5051411;28;20512;-64
2021/11/10 11:13:53;;;;;;;17.80;11.13;;;11.30;94.60;;;;;;5052670;28;20084;-66
2021/11/10 11:16:25;;;;;;;24.92;12.95;;;11.30;94.40;;;;;;5054075;28;21314;-64
2021/11/10 11:19:12;;;;;;;34.88;19.08;;;11.40;94.40;;;;;;5056224;28;20033;-65
2021/11/10 11:21:55;;;;;;;36.25;18.65;;;11.40;94.40;;;;;;5056158;28;20033;-65
2021/11/10 11:24:41;;;;;;;20.50;13.00;;;11.40;94.40;;;;;;5050381;28;20025;-62
2021/11/10 11:27:29;;;;;;;25.50;13.65;;;11.40;94.30;;;;;;5057796;28;20028;-64
2021/11/10 11:30:12;;;;;;;22.20;13.23;;;11.40;94.30;;;;;;5064467;28;20070;-64
2021/11/10 11:32:43;;;;;;;19.23;11.70;;;11.40;94.20;;;;;;5061383;28;20543;-64
2021/11/10 11:35:11;;;;;;;17.88;12.10;;;11.40;94.00;;;;;;5050676;28;20055;-64
2021/11/10 11:37:38;;;;;;;19.08;12.70;;;11.40;94.10;;;;;;5057947;28;20024;-64
2021/11/10 11:40:16;;;;;;;17.38;11.60;;;11.40;94.10;;;;;;5049772;28;20613;-64
2021/11/10 11:42:54;;;;;;;19.85;11.52;;;11.30;94.00;;;;;;5052390;28;20024;-63
2021/11/10 11:45:28;;;;;;;16.35;11.38;;;11.30;94.10;;;;;;5065867;28;20029;-64
2021/11/10 11:47:56;;;;;;;18.83;11.65;;;11.30;94.10;;;;;;5061262;28;20040;-64
2021/11/10 11:50:24;;;;;;;27.00;13.07;;;11.40;94.10;;;;;;5062506;28;20036;-63
2021/11/10 11:52:50;;;;;;;18.23;11.82;;;11.40;94.10;;;;;;5050032;28;20086;-64
2021/11/10 11:55:24;;;;;;;20.40;12.57;;;11.40;94.00;;;;;;5057356;28;20049;-64
2021/11/10 11:58:05;;;;;;;15.48;10.68;;;11.40;93.90;;;;;;5058159;28;20107;-63
2021/11/10 12:01:00;;;;;;;16.02;11.02;;;11.50;93.90;;;;;;5066291;28;20492;-64
2021/11/10 12:03:29;;;;;;;25.58;13.65;;;11.40;93.70;;;;;;5051270;28;20028;-63
2021/11/10 12:06:07;;;;;;;17.25;11.40;;;11.30;93.80;;;;;;5054623;28;20571;-63
2021/11/10 12:08:44;;;;;;;17.48;11.43;;;11.30;93.90;;;;;;5051878;28;20035;-63
2021/11/10 12:11:16;;;;;;;17.52;10.27;;;11.40;93.90;;;;;;5058646;28;20024;-63
2021/11/10 12:14:07;;;;;;;16.67;11.52;;;11.40;93.90;;;;;;5050825;28;20152;-64
2021/11/10 12:16:46;;;;;;;16.70;11.05;;;11.30;93.90;;;;;;5057588;28;20032;-63
2021/11/10 12:19:25;;;;;;;17.98;11.00;;;11.30;93.80;;;;;;5054523;28;20024;-63
2021/11/10 12:21:56;;;;;;;16.02;10.02;;;11.30;93.70;;;;;;5051969;28;20029;-64
2021/11/10 12:24:28;;;;;;;18.60;11.38;;;11.30;93.80;;;;;;5051027;28;20029;-64
2021/11/10 12:27:13;;;;;;;15.35;9.57;;;11.30;93.80;;;;;;5058446;28;20023;-64
2021/11/10 12:29:46;;;;;;;16.02;9.82;;;11.40;93.80;;;;;;5056886;28;20032;-64
2021/11/10 12:32:13;;;;;;;17.13;9.05;;;11.30;93.80;;;;;;5053282;28;20085;-63
2021/11/10 12:34:39;;;;;;;16.85;10.57;;;11.30;93.60;;;;;;5053746;28;20041;-63
2021/11/10 12:37:09;;;;;;;14.77;9.65;;;11.30;93.50;;;;;;5050711;28;20370;-62
2021/11/10 12:39:41;;;;;;;15.18;9.70;;;11.20;93.50;;;;;;5063553;28;20505;-65
2021/11/10 12:42:13;;;;;;;14.75;9.73;;;11.30;93.50;;;;;;5052123;28;20624;-64
2021/11/10 12:44:43;;;;;;;15.63;9.18;;;11.30;93.40;;;;;;5051740;28;20110;-64